Terminal Aerodrome Forecast
Issued by NWS

Home | Current Version | Previous Version | Graphics & Text | Print | Product List | Glossary On
Versions: 1 2 3 4 5 6 7 8 9 10 11 12 13 14 15 16 17 18 19 20 21 22
000
FTUS43 KABR 200400 AAA
TAFPIR
TAF AMD
KPIR 200437Z 2005/2024 33006KT P6SM BKN025
     FM200700 22005KT P6SM OVC015
     FM201000 20005KT 5SM BR OVC005
     FM201200 VRB03KT 1SM BR OVC003
     FM201500 15005KT 3SM BR OVC007
     FM201900 15008KT P6SM OVC015=

USA.gov is the U.S. government's official web portal to all federal, state and local government web resources and services.